Archie C. Settoon — WDD4754 — position and weather

sailwx.info

Track history (hours):
 
Tides and Currents Weather Stations Pressure Air Temp Water Temp Dewpoint Dewpoint Depression Visibility Wind Speed Wind Dir Waves Ship Positions

Archie C. Settoon

Owner: Settoon Towing, LLC, Gibson, LA. More information available from US FCC via Universal Licensing System and Coast Guard Vessel Documentation Center.

Last reported at 2018-Jun-21 06:03 UTC. Time now 2018-Jun-21 10:01 UTC.
Position N 29°52' W 092°23'.

Length 18 m.

Type: Tug. MMSI: 367113590.

Date/timePositionNaut miles runAvg speedWind from/ knotsBaromVisibWave heightAir tempDewpointWater temp
2018-Jun-21 06:03N 29°52' W 092°23'0 5.1
2018-Jun-21 06:00N 29°52' W 092°23'3 4.6
2018-Jun-21 05:18N 29°50' W 092°19'1 4.8
2018-Jun-21 05:01N 29°50' W 092°18'2 4.2
2018-Jun-21 04:30N 29°49' W 092°16'1 3.0
2018-Jun-21 04:01N 29°48' W 092°15'2 4.0
2018-Jun-21 03:31N 29°47' W 092°12'1 1.2
2018-Jun-21 03:00N 29°47' W 092°12'1 1.4
2018-Jun-21 02:31N 29°47' W 092°11'0 0.1
2018-Jun-21 02:01N 29°47' W 092°11'0 0.0
2018-Jun-21 01:31N 29°47' W 092°11'0 0.8
2018-Jun-21 01:01N 29°47' W 092°11'1 2.7
2018-Jun-21 00:31N 29°47' W 092°09'2 3.8
2018-Jun-21 00:01N 29°47' W 092°07'2 4.5
2018-Jun-20 23:31N 29°48' W 092°05'2 4.3
2018-Jun-20 23:01N 29°49' W 092°02'2 4.6
2018-Jun-20 22:30N 29°50' W 091°60'2 3.5
2018-Jun-20 22:00N 29°50' W 091°58'4 0.3
2018-Jun-20 05:47N 29°49' W 092°02'2 6.5
2018-Jun-20 05:31N 29°48' W 092°04'3 5.7
2018-Jun-20 05:01N 29°47' W 092°07'3 5.9
2018-Jun-20 04:30N 29°47' W 092°11'2 3.1
2018-Jun-20 04:00N 29°47' W 092°12'0 0.0
2018-Jun-20 03:30N 29°47' W 092°12'1 2.2
2018-Jun-20 03:00N 29°48' W 092°14'0 0.0
2018-Jun-20 02:30N 29°48' W 092°13'0 0.0
2018-Jun-20 02:01N 29°48' W 092°13'0 0.0
2018-Jun-20 01:31N 29°48' W 092°13'1 2.0
2018-Jun-20 00:59N 29°48' W 092°15'0 0.0
2018-Jun-20 00:30N 29°48' W 092°15'0 0.0
2018-Jun-19 23:57N 29°48' W 092°15'0 0.0
2018-Jun-19 23:30N 29°48' W 092°15'0 0.0
2018-Jun-19 23:00N 29°48' W 092°15'0 0.0
2018-Jun-19 22:31N 29°48' W 092°15'0 0.0
2018-Jun-19 22:00N 29°48' W 092°15'0 0.0
2018-Jun-19 21:30N 29°48' W 092°15'0 0.0
2018-Jun-19 21:01N 29°48' W 092°15'1 1.3
2018-Jun-19 20:31N 29°48' W 092°15'0 0.0
2018-Jun-19 19:59N 29°48' W 092°15'0 0.5
2018-Jun-19 19:31N 29°48' W 092°15'3 5.5
2018-Jun-19 19:01N 29°50' W 092°18'3 6.0
2018-Jun-19 18:30N 29°51' W 092°21'43 4.7
2018-Jun-19 09:29N 29°57' W 093°10'4 5.7
2018-Jun-19 08:49N 29°59' W 093°13'2 5.7
2018-Jun-19 08:30N 30°01' W 093°14'3 5.3
2018-Jun-19 08:01N 30°03' W 093°16'3 5.3
2018-Jun-19 07:31N 30°05' W 093°18'1 1.5
2018-Jun-19 07:01N 30°06' W 093°18'0 0.1
2018-Jun-19 06:31N 30°06' W 093°18'0 0.0
2018-Jun-19 06:01N 30°06' W 093°18'0 0.0
2018-Jun-19 05:30N 30°06' W 093°18'0 0.0
2018-Jun-19 05:01N 30°06' W 093°18'0 0.0
2018-Jun-19 04:30N 30°06' W 093°18'0 0.0
2018-Jun-19 04:00N 30°06' W 093°18'0 0.0
2018-Jun-19 03:30N 30°06' W 093°18'0 0.0
2018-Jun-19 03:01N 30°06' W 093°18'0 0.0
2018-Jun-19 02:31N 30°06' W 093°18'0 0.0
2018-Jun-19 02:01N 30°06' W 093°18'0 0.0
2018-Jun-19 01:30N 30°06' W 093°18'0 0.0
2018-Jun-19 01:00N 30°06' W 093°18'0 0.0
2018-Jun-19 00:30N 30°06' W 093°18'0 0.0
2018-Jun-19 00:01N 30°06' W 093°18'0 0.0
2018-Jun-18 23:29N 30°06' W 093°18'0 0.0
2018-Jun-18 23:00N 30°06' W 093°18'0 0.0
2018-Jun-18 22:30N 30°06' W 093°18'0 0.0
2018-Jun-18 22:01N 30°06' W 093°18'0 0.0
2018-Jun-18 21:30N 30°06' W 093°18'0 0.0
2018-Jun-18 21:01N 30°06' W 093°18'0 0.0
2018-Jun-18 20:31N 30°06' W 093°18'0 0.0
2018-Jun-18 20:00N 30°06' W 093°18'0 0.0
2018-Jun-18 19:30N 30°06' W 093°18'0 0.0
2018-Jun-18 19:01N 30°06' W 093°18'0 0.0
2018-Jun-18 18:31N 30°06' W 093°18'0 0.0
2018-Jun-18 18:01N 30°06' W 093°18'0 0.0
2018-Jun-18 17:31N 30°06' W 093°18'0 0.0
2018-Jun-18 17:01N 30°06' W 093°18'0 0.0
2018-Jun-18 16:31N 30°06' W 093°18'0 0.0
2018-Jun-18 16:00N 30°06' W 093°18'0 0.0
2018-Jun-18 15:31N 30°06' W 093°18'0 0.0
2018-Jun-18 14:59N 30°06' W 093°18'0 0.0
2018-Jun-18 14:31N 30°06' W 093°18'0 0.0
2018-Jun-18 14:00N 30°06' W 093°18'0 0.0
2018-Jun-18 13:31N 30°06' W 093°18'0 0.0
2018-Jun-18 13:00N 30°06' W 093°18'0 0.0
2018-Jun-18 12:31N 30°06' W 093°18'0 0.0
2018-Jun-18 12:01N 30°06' W 093°18'0 0.0
2018-Jun-18 11:31N 30°06' W 093°18'0 0.0
2018-Jun-18 11:01N 30°06' W 093°18'0 0.0
2018-Jun-18 10:31N 30°06' W 093°18'0 0.0
2018-Jun-18 10:01N 30°06' W 093°18'0 0.0
2018-Jun-18 09:31N 30°06' W 093°18'0 0.0
2018-Jun-18 09:01N 30°06' W 093°18'0 0.0
2018-Jun-18 08:31N 30°06' W 093°18'0 0.0
2018-Jun-18 08:01N 30°06' W 093°18'0 0.0
2018-Jun-18 07:31N 30°06' W 093°18'0 0.0
2018-Jun-18 07:01N 30°06' W 093°18'0 0.0
2018-Jun-18 06:31N 30°06' W 093°18'0 0.0
2018-Jun-18 06:01N 30°06' W 093°18'0 0.0
2018-Jun-18 05:30N 30°06' W 093°18'0 0.0
2018-Jun-18 05:01N 30°06' W 093°18'0 0.0
2018-Jun-18 04:31N 30°06' W 093°18'0 0.0
2018-Jun-18 04:01N 30°06' W 093°18'0 0.0
2018-Jun-18 03:31N 30°06' W 093°18'0 1.0
2018-Jun-18 03:01N 30°06' W 093°18'2 3.1
2018-Jun-18 02:30N 30°07' W 093°20'1 2.7
2018-Jun-18 02:01N 30°08' W 093°19'0 0.0
2018-Jun-18 01:31N 30°08' W 093°19'0 0.0
2018-Jun-18 01:01N 30°08' W 093°19'0 0.0
2018-Jun-18 00:31N 30°08' W 093°19'0 0.0
2018-Jun-18 00:01N 30°08' W 093°19'0 0.0
2018-Jun-17 23:31N 30°08' W 093°19'0 0.0
2018-Jun-17 23:00N 30°08' W 093°19'0 0.0
2018-Jun-17 22:31N 30°08' W 093°19'0 0.0
2018-Jun-17 22:01N 30°08' W 093°19'0 0.0
2018-Jun-17 21:30N 30°08' W 093°19'0 0.0
2018-Jun-17 21:01N 30°08' W 093°19'0 0.0
2018-Jun-17 20:31N 30°08' W 093°19'0 0.0
2018-Jun-17 20:01N 30°08' W 093°19'0 0.0
2018-Jun-17 19:30N 30°08' W 093°19'0 0.0
2018-Jun-17 19:00N 30°08' W 093°19'0 0.0
2018-Jun-17 18:31N 30°08' W 093°19'0 0.0
2018-Jun-17 18:01N 30°08' W 093°19'0 0.0
2018-Jun-17 17:30N 30°08' W 093°19'0 0.0
2018-Jun-17 17:00N 30°08' W 093°19'0 0.0
2018-Jun-17 16:30N 30°08' W 093°19'0 0.0
2018-Jun-17 16:00N 30°08' W 093°19'0 0.0
2018-Jun-17 15:30N 30°08' W 093°19'0 0.5
2018-Jun-17 15:00N 30°08' W 093°20'2 4.2
2018-Jun-17 14:30N 30°06' W 093°19'1 2.9
2018-Jun-17 14:00N 30°05' W 093°18'1 2.0
2018-Jun-17 13:30N 30°05' W 093°17'0 0.4
2018-Jun-17 13:00N 30°05' W 093°16'0 0.1
2018-Jun-17 12:30N 30°04' W 093°16'0 0.0
2018-Jun-17 12:00N 30°04' W 093°16'0 0.0
2018-Jun-17 11:30N 30°04' W 093°16'0 0.0
2018-Jun-17 11:00N 30°04' W 093°16'0 0.0
2018-Jun-17 10:30N 30°04' W 093°16'0 0.0
2018-Jun-17 10:00N 30°04' W 093°16'0 0.0
2018-Jun-17 09:30N 30°04' W 093°16'0 0.0
2018-Jun-17 09:00N 30°04' W 093°16'0 0.0
2018-Jun-17 08:29N 30°04' W 093°16'0 0.0
2018-Jun-17 08:00N 30°04' W 093°16'0 0.0
2018-Jun-17 07:30N 30°04' W 093°16'0 0.0
2018-Jun-17 07:00N 30°04' W 093°16'0 0.0
2018-Jun-17 06:30N 30°04' W 093°16'0 0.0
2018-Jun-17 06:00N 30°04' W 093°16'0 0.0
2018-Jun-17 05:30N 30°04' W 093°16'0 0.0
2018-Jun-17 04:59N 30°04' W 093°16'0 0.0
2018-Jun-17 04:30N 30°04' W 093°16'0 0.0
2018-Jun-17 04:00N 30°04' W 093°16'0 0.0
2018-Jun-17 03:30N 30°04' W 093°16'0 0.0
2018-Jun-17 02:57N 30°04' W 093°16'0 0.0
2018-Jun-17 02:28N 30°04' W 093°16'0 0.1
2018-Jun-17 02:00N 30°04' W 093°16'0 0.0
2018-Jun-17 01:30N 30°04' W 093°16'0 0.0
2018-Jun-17 01:00N 30°04' W 093°16'0 0.0
2018-Jun-17 00:29N 30°04' W 093°16'0 0.0
2018-Jun-17 00:00N 30°04' W 093°16'0 0.0
2018-Jun-16 23:27N 30°04' W 093°16'0 0.0
2018-Jun-16 23:00N 30°04' W 093°16'0 0.0
2018-Jun-16 22:27N 30°04' W 093°16'0 0.0
2018-Jun-16 22:00N 30°04' W 093°16'0 0.0
2018-Jun-16 21:30N 30°04' W 093°16'0 0.0
2018-Jun-16 21:00N 30°04' W 093°16'0 0.0
2018-Jun-16 20:30N 30°04' W 093°16'0 1.0
2018-Jun-16 20:00N 30°04' W 093°16'1 2.4
2018-Jun-16 19:30N 30°03' W 093°16'0 0.9
2018-Jun-16 19:00N 30°02' W 093°16'2 4.3
2018-Jun-16 18:30N 30°01' W 093°14'2 3.7
2018-Jun-16 18:00N 29°59' W 093°13'0 0.0
2018-Jun-16 17:26N 29°59' W 093°13'0 0.0
2018-Jun-16 17:00N 29°59' W 093°13'0 0.0
2018-Jun-16 16:30N 29°59' W 093°13'1 2.3
2018-Jun-16 16:00N 29°59' W 093°12'2 3.6
2018-Jun-16 15:30N 29°57' W 093°11'2 4.1
2018-Jun-16 15:00N 29°56' W 093°09'2 4.7
2018-Jun-16 14:30N 29°56' W 093°06'37 3.6
2018-Jun-16 04:09N 29°53' W 092°23'1 4.9
2018-Jun-16 04:00N 29°52' W 092°23'2 4.4
2018-Jun-16 03:30N 29°51' W 092°21'2 4.6
2018-Jun-16 03:00N 29°50' W 092°18'2 4.2
2018-Jun-16 02:30N 29°49' W 092°17'2 4.1
2018-Jun-16 02:00N 29°48' W 092°14'2 3.9
2018-Jun-16 01:31N 29°47' W 092°12'1 1.9
2018-Jun-16 01:00N 29°47' W 092°11'0 0.5
2018-Jun-16 00:30N 29°47' W 092°11'2 4.6
2018-Jun-16 00:00N 29°47' W 092°08'3 5.3
2018-Jun-15 23:30N 29°48' W 092°06'3 5.2
2018-Jun-15 23:00N 29°49' W 092°03'3 5.1
2018-Jun-15 22:31N 29°50' W 091°60'3 5.1
2018-Jun-15 22:00N 29°50' W 091°57'7 0.3
2018-Jun-14 18:36N 29°48' W 092°05'1 6.1
2018-Jun-14 18:27N 29°48' W 092°06'3 6.0
2018-Jun-14 18:00N 29°47' W 092°09'2 4.0
2018-Jun-14 17:31N 29°47' W 092°11'0 0.0
2018-Jun-14 17:01N 29°47' W 092°11'2 3.5
2018-Jun-14 16:30N 29°47' W 092°13'0 0.8
2018-Jun-14 16:01N 29°48' W 092°13'1 1.3
2018-Jun-14 15:31N 29°48' W 092°14'3 6.4
2018-Jun-14 15:01N 29°49' W 092°17'3 5.5
2018-Jun-14 14:30N 29°51' W 092°20'3 4.8
2018-Jun-14 13:59N 29°52' W 092°22'37 5.5
2018-Jun-14 07:19N 29°56' W 093°05'8 4.4
2018-Jun-14 05:33N 29°60' W 093°13'1 6.0
2018-Jun-14 05:25N 30°00' W 093°14'2 5.0
2018-Jun-14 05:00N 30°02' W 093°15'3 5.1
2018-Jun-14 04:31N 30°04' W 093°16'1 2.8
2018-Jun-14 04:01N 30°05' W 093°17'1 1.3
2018-Jun-14 03:30N 30°05' W 093°18'1 1.4
2018-Jun-14 03:00N 30°06' W 093°18'1 1.2
2018-Jun-14 02:30N 30°06' W 093°19'0 0.0
2018-Jun-14 02:01N 30°06' W 093°19'0 0.0
2018-Jun-14 01:31N 30°06' W 093°19'0 0.0
2018-Jun-14 01:00N 30°06' W 093°19'0 0.0
2018-Jun-14 00:31N 30°06' W 093°19'0 0.0
2018-Jun-14 00:01N 30°06' W 093°19'0 0.0
2018-Jun-13 23:31N 30°06' W 093°19'0 0.0
2018-Jun-13 23:01N 30°06' W 093°19'0 0.0
2018-Jun-13 22:31N 30°06' W 093°19'0 0.0
2018-Jun-13 22:01N 30°06' W 093°19'0 0.0
2018-Jun-13 21:30N 30°06' W 093°19'0 0.0
2018-Jun-13 21:01N 30°06' W 093°19'0 0.0
2018-Jun-13 20:31N 30°06' W 093°19'0 0.0
2018-Jun-13 20:01N 30°06' W 093°19'0 0.0
2018-Jun-13 19:31N 30°06' W 093°19'0 0.0
2018-Jun-13 19:01N 30°06' W 093°19'0 0.0
2018-Jun-13 18:31N 30°06' W 093°19'0 0.0
2018-Jun-13 18:01N 30°06' W 093°19'0 0.0
2018-Jun-13 17:31N 30°06' W 093°19'0 0.0
2018-Jun-13 17:01N 30°06' W 093°19'0 0.0
2018-Jun-13 16:31N 30°06' W 093°19'0 0.0
2018-Jun-13 16:01N 30°06' W 093°19'0 0.0
2018-Jun-13 15:30N 30°06' W 093°19'0 0.0
2018-Jun-13 15:01N 30°06' W 093°19'0 0.0
2018-Jun-13 14:30N 30°06' W 093°19'0 0.0
2018-Jun-13 14:01N 30°06' W 093°19'0 0.0
2018-Jun-13 13:30N 30°06' W 093°19'0 0.0
2018-Jun-13 13:01N 30°06' W 093°19'0 0.0
2018-Jun-13 12:30N 30°06' W 093°19'0 0.0
2018-Jun-13 11:59N 30°06' W 093°19'0 0.0
2018-Jun-13 11:30N 30°06' W 093°19'0 0.0
2018-Jun-13 11:01N 30°06' W 093°19'0 0.0
2018-Jun-13 10:31N 30°06' W 093°19'0 0.0
2018-Jun-13 10:00N 30°06' W 093°19'0 0.0
2018-Jun-13 09:29N 30°06' W 093°19'0 0.0
2018-Jun-13 09:00N 30°06' W 093°19'0 0.0
2018-Jun-13 08:31N 30°06' W 093°19'1 2.3
2018-Jun-13 08:01N 30°07' W 093°20'1 2.8
2018-Jun-13 07:31N 30°08' W 093°19'0 0.0
2018-Jun-13 07:01N 30°08' W 093°19'0 0.0
2018-Jun-13 06:31N 30°08' W 093°19'0 0.0
2018-Jun-13 06:01N 30°08' W 093°19'0 0.0
2018-Jun-13 05:31N 30°08' W 093°19'0 0.0
2018-Jun-13 05:01N 30°08' W 093°19'0 0.0
2018-Jun-13 04:31N 30°08' W 093°19'0 0.0
2018-Jun-13 04:00N 30°08' W 093°19'0 0.0
2018-Jun-13 03:30N 30°08' W 093°19'0 0.0
2018-Jun-13 03:01N 30°08' W 093°19'0 0.0
2018-Jun-13 02:31N 30°08' W 093°19'0 0.0
2018-Jun-13 02:01N 30°08' W 093°19'0 0.0
2018-Jun-13 01:30N 30°08' W 093°19'0 0.0
2018-Jun-13 01:01N 30°08' W 093°19'0 0.0
2018-Jun-13 00:31N 30°08' W 093°19'1 2.4
2018-Jun-13 00:01N 30°07' W 093°20'3 5.1
2018-Jun-12 23:30N 30°04' W 093°20'2 4.3
2018-Jun-12 23:01N 30°04' W 093°23'3 5.1
2018-Jun-12 22:31N 30°04' W 093°26'3 5.9
2018-Jun-12 22:01N 30°04' W 093°29'3 6.1
2018-Jun-12 21:30N 30°04' W 093°32'3 6.1
2018-Jun-12 21:00N 30°04' W 093°36'2 0.3
2018-Jun-12 15:17N 30°02' W 093°37'2 3.9
2018-Jun-12 14:49N 30°04' W 093°36'2 6.0
2018-Jun-12 14:30N 30°04' W 093°34'3 6.2
2018-Jun-12 13:59N 30°04' W 093°30'3 6.4
2018-Jun-12 13:31N 30°04' W 093°27'3 6.5
2018-Jun-12 13:00N 30°04' W 093°23'3 5.6
2018-Jun-12 12:31N 30°05' W 093°20'3 5.0
2018-Jun-12 12:01N 30°07' W 093°20'1 2.0
2018-Jun-12 11:31N 30°08' W 093°19'0 0.0
2018-Jun-12 11:00N 30°08' W 093°19'0 0.0
2018-Jun-12 10:31N 30°08' W 093°19'0 0.0
2018-Jun-12 10:00N 30°08' W 093°19'0 0.0
2018-Jun-12 09:27N 30°08' W 093°19'0 0.0
2018-Jun-12 08:59N 30°08' W 093°19'0 0.0
2018-Jun-12 08:29N 30°08' W 093°19'0 0.0
2018-Jun-12 08:01N 30°08' W 093°19'0 0.1
2018-Jun-12 07:31N 30°08' W 093°19'0 0.0
2018-Jun-12 07:00N 30°08' W 093°19'0 0.0
2018-Jun-12 06:30N 30°08' W 093°19'0 0.0
2018-Jun-12 06:00N 30°08' W 093°19'0 0.0
2018-Jun-12 05:31N 30°08' W 093°19'0 0.0
2018-Jun-12 05:01N 30°08' W 093°19'0 0.0
2018-Jun-12 04:31N 30°08' W 093°19'0 0.0
2018-Jun-12 04:00N 30°08' W 093°19'0 0.0
2018-Jun-12 03:30N 30°08' W 093°19'0 0.0
2018-Jun-12 03:01N 30°08' W 093°19'0 0.0
2018-Jun-12 02:31N 30°08' W 093°19'0 0.0
2018-Jun-12 02:01N 30°08' W 093°19'0 0.0
2018-Jun-12 01:31N 30°08' W 093°19'0 0.0
2018-Jun-12 01:01N 30°08' W 093°19'0 0.0
2018-Jun-12 00:31N 30°08' W 093°19'0 0.0
2018-Jun-12 00:00N 30°08' W 093°19'0 0.0
2018-Jun-11 23:31N 30°08' W 093°19'0 0.0
2018-Jun-11 23:01N 30°08' W 093°19'0 0.0
2018-Jun-11 22:31N 30°08' W 093°19'0 0.0
2018-Jun-11 22:01N 30°08' W 093°19'0 0.0
2018-Jun-11 21:30N 30°08' W 093°19'0 0.0
2018-Jun-11 21:00N 30°08' W 093°19'0 0.0
2018-Jun-11 20:31N 30°08' W 093°19'0 0.0
2018-Jun-11 20:00N 30°08' W 093°19'0 0.0
2018-Jun-11 19:31N 30°08' W 093°19'0 0.0
2018-Jun-11 19:01N 30°08' W 093°19'0 0.0
2018-Jun-11 18:30N 30°08' W 093°19'0 0.0
2018-Jun-11 18:01N 30°08' W 093°19'0 0.0
2018-Jun-11 17:31N 30°08' W 093°19'0 0.0
2018-Jun-11 17:00N 30°08' W 093°19'0 0.0
2018-Jun-11 16:30N 30°08' W 093°19'0 0.0
2018-Jun-11 16:00N 30°08' W 093°19'0 0.0
2018-Jun-11 15:30N 30°08' W 093°19'0 0.0
2018-Jun-11 15:01N 30°08' W 093°19'0 0.1
2018-Jun-11 14:31N 30°08' W 093°19'0 0.0
2018-Jun-11 14:01N 30°08' W 093°19'0 0.0
2018-Jun-11 13:31N 30°08' W 093°19'0 0.0
2018-Jun-11 13:01N 30°08' W 093°19'0 0.0
2018-Jun-11 12:30N 30°08' W 093°19'0 0.0
2018-Jun-11 12:00N 30°08' W 093°19'0 0.0
2018-Jun-11 11:29N 30°08' W 093°19'0 0.0
2018-Jun-11 11:00N 30°08' W 093°19'0 0.0
2018-Jun-11 10:31N 30°08' W 093°19'0 0.0
2018-Jun-11 10:00N 30°08' W 093°19'0 0.1
2018-Jun-11 09:30N 30°08' W 093°19'0 0.1
2018-Jun-11 09:01N 30°08' W 093°19'0 0.0
2018-Jun-11 08:30N 30°08' W 093°19'0 0.0
2018-Jun-11 08:00N 30°08' W 093°19'0 0.0
2018-Jun-11 07:30N 30°08' W 093°19'0 0.0
2018-Jun-11 07:01N 30°08' W 093°19'0 0.0
2018-Jun-11 06:31N 30°08' W 093°19'  
Track history (hours):
 
Tides and Currents Weather Stations Pressure Air Temp Water Temp Dewpoint Dewpoint Depression Visibility Wind Speed Wind Dir Waves Ship Positions

Archie C. Settoon

Owner: Settoon Towing, LLC, Gibson, LA. More information available from US FCC via Universal Licensing System and Coast Guard Vessel Documentation Center.

Last reported at 2018-Jun-21 06:03 UTC. Time now 2018-Jun-21 10:01 UTC.
Position N 29°52' W 092°23'.

Length 18 m.

Type: Tug. MMSI: 367113590.

Date/timePositionNaut miles runAvg speedWind from/ knotsBaromVisibWave heightAir tempDewpointWater temp
2018-Jun-21 06:03N 29°52' W 092°23'0 5.1
2018-Jun-21 06:00N 29°52' W 092°23'3 4.6
2018-Jun-21 05:18N 29°50' W 092°19'1 4.8
2018-Jun-21 05:01N 29°50' W 092°18'2 4.2
2018-Jun-21 04:30N 29°49' W 092°16'1 3.0
2018-Jun-21 04:01N 29°48' W 092°15'2 4.0
2018-Jun-21 03:31N 29°47' W 092°12'1 1.2
2018-Jun-21 03:00N 29°47' W 092°12'1 1.4
2018-Jun-21 02:31N 29°47' W 092°11'0 0.1
2018-Jun-21 02:01N 29°47' W 092°11'0 0.0
2018-Jun-21 01:31N 29°47' W 092°11'0 0.8
2018-Jun-21 01:01N 29°47' W 092°11'1 2.7
2018-Jun-21 00:31N 29°47' W 092°09'2 3.8
2018-Jun-21 00:01N 29°47' W 092°07'2 4.5
2018-Jun-20 23:31N 29°48' W 092°05'2 4.3
2018-Jun-20 23:01N 29°49' W 092°02'2 4.6
2018-Jun-20 22:30N 29°50' W 091°60'2 3.5
2018-Jun-20 22:00N 29°50' W 091°58'4 0.3
2018-Jun-20 05:47N 29°49' W 092°02'2 6.5
2018-Jun-20 05:31N 29°48' W 092°04'3 5.7
2018-Jun-20 05:01N 29°47' W 092°07'3 5.9
2018-Jun-20 04:30N 29°47' W 092°11'2 3.1
2018-Jun-20 04:00N 29°47' W 092°12'0 0.0
2018-Jun-20 03:30N 29°47' W 092°12'1 2.2
2018-Jun-20 03:00N 29°48' W 092°14'0 0.0
2018-Jun-20 02:30N 29°48' W 092°13'0 0.0
2018-Jun-20 02:01N 29°48' W 092°13'0 0.0
2018-Jun-20 01:31N 29°48' W 092°13'1 2.0
2018-Jun-20 00:59N 29°48' W 092°15'0 0.0
2018-Jun-20 00:30N 29°48' W 092°15'0 0.0
2018-Jun-19 23:57N 29°48' W 092°15'0 0.0
2018-Jun-19 23:30N 29°48' W 092°15'0 0.0
2018-Jun-19 23:00N 29°48' W 092°15'0 0.0
2018-Jun-19 22:31N 29°48' W 092°15'0 0.0
2018-Jun-19 22:00N 29°48' W 092°15'0 0.0
2018-Jun-19 21:30N 29°48' W 092°15'0 0.0
2018-Jun-19 21:01N 29°48' W 092°15'1 1.3
2018-Jun-19 20:31N 29°48' W 092°15'0 0.0
2018-Jun-19 19:59N 29°48' W 092°15'0 0.5
2018-Jun-19 19:31N 29°48' W 092°15'3 5.5
2018-Jun-19 19:01N 29°50' W 092°18'3 6.0
2018-Jun-19 18:30N 29°51' W 092°21'43 4.7
2018-Jun-19 09:29N 29°57' W 093°10'4 5.7
2018-Jun-19 08:49N 29°59' W 093°13'2 5.7
2018-Jun-19 08:30N 30°01' W 093°14'3 5.3
2018-Jun-19 08:01N 30°03' W 093°16'3 5.3
2018-Jun-19 07:31N 30°05' W 093°18'1 1.5
2018-Jun-19 07:01N 30°06' W 093°18'0 0.1
2018-Jun-19 06:31N 30°06' W 093°18'0 0.0
2018-Jun-19 06:01N 30°06' W 093°18'0 0.0
2018-Jun-19 05:30N 30°06' W 093°18'0 0.0
2018-Jun-19 05:01N 30°06' W 093°18'0 0.0
2018-Jun-19 04:30N 30°06' W 093°18'0 0.0
2018-Jun-19 04:00N 30°06' W 093°18'0 0.0
2018-Jun-19 03:30N 30°06' W 093°18'0 0.0
2018-Jun-19 03:01N 30°06' W 093°18'0 0.0
2018-Jun-19 02:31N 30°06' W 093°18'0 0.0
2018-Jun-19 02:01N 30°06' W 093°18'0 0.0
2018-Jun-19 01:30N 30°06' W 093°18'0 0.0
2018-Jun-19 01:00N 30°06' W 093°18'0 0.0
2018-Jun-19 00:30N 30°06' W 093°18'0 0.0
2018-Jun-19 00:01N 30°06' W 093°18'0 0.0
2018-Jun-18 23:29N 30°06' W 093°18'0 0.0
2018-Jun-18 23:00N 30°06' W 093°18'0 0.0
2018-Jun-18 22:30N 30°06' W 093°18'0 0.0
2018-Jun-18 22:01N 30°06' W 093°18'0 0.0
2018-Jun-18 21:30N 30°06' W 093°18'0 0.0
2018-Jun-18 21:01N 30°06' W 093°18'0 0.0
2018-Jun-18 20:31N 30°06' W 093°18'0 0.0
2018-Jun-18 20:00N 30°06' W 093°18'0 0.0
2018-Jun-18 19:30N 30°06' W 093°18'0 0.0
2018-Jun-18 19:01N 30°06' W 093°18'0 0.0
2018-Jun-18 18:31N 30°06' W 093°18'0 0.0
2018-Jun-18 18:01N 30°06' W 093°18'0 0.0
2018-Jun-18 17:31N 30°06' W 093°18'0 0.0
2018-Jun-18 17:01N 30°06' W 093°18'0 0.0
2018-Jun-18 16:31N 30°06' W 093°18'0 0.0
2018-Jun-18 16:00N 30°06' W 093°18'0 0.0
2018-Jun-18 15:31N 30°06' W 093°18'0 0.0
2018-Jun-18 14:59N 30°06' W 093°18'0 0.0
2018-Jun-18 14:31N 30°06' W 093°18'0 0.0
2018-Jun-18 14:00N 30°06' W 093°18'0 0.0
2018-Jun-18 13:31N 30°06' W 093°18'0 0.0
2018-Jun-18 13:00N 30°06' W 093°18'0 0.0
2018-Jun-18 12:31N 30°06' W 093°18'0 0.0
2018-Jun-18 12:01N 30°06' W 093°18'0 0.0
2018-Jun-18 11:31N 30°06' W 093°18'0 0.0
2018-Jun-18 11:01N 30°06' W 093°18'0 0.0
2018-Jun-18 10:31N 30°06' W 093°18'0 0.0
2018-Jun-18 10:01N 30°06' W 093°18'0 0.0
2018-Jun-18 09:31N 30°06' W 093°18'0 0.0
2018-Jun-18 09:01N 30°06' W 093°18'0 0.0
2018-Jun-18 08:31N 30°06' W 093°18'0 0.0
2018-Jun-18 08:01N 30°06' W 093°18'0 0.0
2018-Jun-18 07:31N 30°06' W 093°18'0 0.0
2018-Jun-18 07:01N 30°06' W 093°18'0 0.0
2018-Jun-18 06:31N 30°06' W 093°18'0 0.0
2018-Jun-18 06:01N 30°06' W 093°18'0 0.0
2018-Jun-18 05:30N 30°06' W 093°18'0 0.0
2018-Jun-18 05:01N 30°06' W 093°18'0 0.0
2018-Jun-18 04:31N 30°06' W 093°18'0 0.0
2018-Jun-18 04:01N 30°06' W 093°18'0 0.0
2018-Jun-18 03:31N 30°06' W 093°18'0 1.0
2018-Jun-18 03:01N 30°06' W 093°18'2 3.1
2018-Jun-18 02:30N 30°07' W 093°20'1 2.7
2018-Jun-18 02:01N 30°08' W 093°19'0 0.0
2018-Jun-18 01:31N 30°08' W 093°19'0 0.0
2018-Jun-18 01:01N 30°08' W 093°19'0 0.0
2018-Jun-18 00:31N 30°08' W 093°19'0 0.0
2018-Jun-18 00:01N 30°08' W 093°19'0 0.0
2018-Jun-17 23:31N 30°08' W 093°19'0 0.0
2018-Jun-17 23:00N 30°08' W 093°19'0 0.0
2018-Jun-17 22:31N 30°08' W 093°19'0 0.0
2018-Jun-17 22:01N 30°08' W 093°19'0 0.0
2018-Jun-17 21:30N 30°08' W 093°19'0 0.0
2018-Jun-17 21:01N 30°08' W 093°19'0 0.0
2018-Jun-17 20:31N 30°08' W 093°19'0 0.0
2018-Jun-17 20:01N 30°08' W 093°19'0 0.0
2018-Jun-17 19:30N 30°08' W 093°19'0 0.0
2018-Jun-17 19:00N 30°08' W 093°19'0 0.0
2018-Jun-17 18:31N 30°08' W 093°19'0 0.0
2018-Jun-17 18:01N 30°08' W 093°19'0 0.0
2018-Jun-17 17:30N 30°08' W 093°19'0 0.0
2018-Jun-17 17:00N 30°08' W 093°19'0 0.0
2018-Jun-17 16:30N 30°08' W 093°19'0 0.0
2018-Jun-17 16:00N 30°08' W 093°19'0 0.0
2018-Jun-17 15:30N 30°08' W 093°19'0 0.5
2018-Jun-17 15:00N 30°08' W 093°20'2 4.2
2018-Jun-17 14:30N 30°06' W 093°19'1 2.9
2018-Jun-17 14:00N 30°05' W 093°18'1 2.0
2018-Jun-17 13:30N 30°05' W 093°17'0 0.4
2018-Jun-17 13:00N 30°05' W 093°16'0 0.1
2018-Jun-17 12:30N 30°04' W 093°16'0 0.0
2018-Jun-17 12:00N 30°04' W 093°16'0 0.0
2018-Jun-17 11:30N 30°04' W 093°16'0 0.0
2018-Jun-17 11:00N 30°04' W 093°16'0 0.0
2018-Jun-17 10:30N 30°04' W 093°16'0 0.0
2018-Jun-17 10:00N 30°04' W 093°16'0 0.0
2018-Jun-17 09:30N 30°04' W 093°16'0 0.0
2018-Jun-17 09:00N 30°04' W 093°16'0 0.0
2018-Jun-17 08:29N 30°04' W 093°16'0 0.0
2018-Jun-17 08:00N 30°04' W 093°16'0 0.0
2018-Jun-17 07:30N 30°04' W 093°16'0 0.0
2018-Jun-17 07:00N 30°04' W 093°16'0 0.0
2018-Jun-17 06:30N 30°04' W 093°16'0 0.0
2018-Jun-17 06:00N 30°04' W 093°16'0 0.0
2018-Jun-17 05:30N 30°04' W 093°16'0 0.0
2018-Jun-17 04:59N 30°04' W 093°16'0 0.0
2018-Jun-17 04:30N 30°04' W 093°16'0 0.0
2018-Jun-17 04:00N 30°04' W 093°16'0 0.0
2018-Jun-17 03:30N 30°04' W 093°16'0 0.0
2018-Jun-17 02:57N 30°04' W 093°16'0 0.0
2018-Jun-17 02:28N 30°04' W 093°16'0 0.1
2018-Jun-17 02:00N 30°04' W 093°16'0 0.0
2018-Jun-17 01:30N 30°04' W 093°16'0 0.0
2018-Jun-17 01:00N 30°04' W 093°16'0 0.0
2018-Jun-17 00:29N 30°04' W 093°16'0 0.0
2018-Jun-17 00:00N 30°04' W 093°16'0 0.0
2018-Jun-16 23:27N 30°04' W 093°16'0 0.0
2018-Jun-16 23:00N 30°04' W 093°16'0 0.0
2018-Jun-16 22:27N 30°04' W 093°16'0 0.0
2018-Jun-16 22:00N 30°04' W 093°16'0 0.0
2018-Jun-16 21:30N 30°04' W 093°16'0 0.0
2018-Jun-16 21:00N 30°04' W 093°16'0 0.0
2018-Jun-16 20:30N 30°04' W 093°16'0 1.0
2018-Jun-16 20:00N 30°04' W 093°16'1 2.4
2018-Jun-16 19:30N 30°03' W 093°16'0 0.9
2018-Jun-16 19:00N 30°02' W 093°16'2 4.3
2018-Jun-16 18:30N 30°01' W 093°14'2 3.7
2018-Jun-16 18:00N 29°59' W 093°13'0 0.0
2018-Jun-16 17:26N 29°59' W 093°13'0 0.0
2018-Jun-16 17:00N 29°59' W 093°13'0 0.0
2018-Jun-16 16:30N 29°59' W 093°13'1 2.3
2018-Jun-16 16:00N 29°59' W 093°12'2 3.6
2018-Jun-16 15:30N 29°57' W 093°11'2 4.1
2018-Jun-16 15:00N 29°56' W 093°09'2 4.7
2018-Jun-16 14:30N 29°56' W 093°06'37 3.6
2018-Jun-16 04:09N 29°53' W 092°23'1 4.9
2018-Jun-16 04:00N 29°52' W 092°23'2 4.4
2018-Jun-16 03:30N 29°51' W 092°21'2 4.6
2018-Jun-16 03:00N 29°50' W 092°18'2 4.2
2018-Jun-16 02:30N 29°49' W 092°17'2 4.1
2018-Jun-16 02:00N 29°48' W 092°14'2 3.9
2018-Jun-16 01:31N 29°47' W 092°12'1 1.9
2018-Jun-16 01:00N 29°47' W 092°11'0 0.5
2018-Jun-16 00:30N 29°47' W 092°11'2 4.6
2018-Jun-16 00:00N 29°47' W 092°08'3 5.3
2018-Jun-15 23:30N 29°48' W 092°06'3 5.2
2018-Jun-15 23:00N 29°49' W 092°03'3 5.1
2018-Jun-15 22:31N 29°50' W 091°60'3 5.1
2018-Jun-15 22:00N 29°50' W 091°57'7 0.3
2018-Jun-14 18:36N 29°48' W 092°05'1 6.1
2018-Jun-14 18:27N 29°48' W 092°06'3 6.0
2018-Jun-14 18:00N 29°47' W 092°09'2 4.0
2018-Jun-14 17:31N 29°47' W 092°11'0 0.0
2018-Jun-14 17:01N 29°47' W 092°11'2 3.5
2018-Jun-14 16:30N 29°47' W 092°13'0 0.8
2018-Jun-14 16:01N 29°48' W 092°13'1 1.3
2018-Jun-14 15:31N 29°48' W 092°14'3 6.4
2018-Jun-14 15:01N 29°49' W 092°17'3 5.5
2018-Jun-14 14:30N 29°51' W 092°20'3 4.8
2018-Jun-14 13:59N 29°52' W 092°22'37 5.5
2018-Jun-14 07:19N 29°56' W 093°05'8 4.4
2018-Jun-14 05:33N 29°60' W 093°13'1 6.0
2018-Jun-14 05:25N 30°00' W 093°14'2 5.0
2018-Jun-14 05:00N 30°02' W 093°15'3 5.1
2018-Jun-14 04:31N 30°04' W 093°16'1 2.8
2018-Jun-14 04:01N 30°05' W 093°17'1 1.3
2018-Jun-14 03:30N 30°05' W 093°18'1 1.4
2018-Jun-14 03:00N 30°06' W 093°18'1 1.2
2018-Jun-14 02:30N 30°06' W 093°19'0 0.0
2018-Jun-14 02:01N 30°06' W 093°19'0 0.0
2018-Jun-14 01:31N 30°06' W 093°19'0 0.0
2018-Jun-14 01:00N 30°06' W 093°19'0 0.0
2018-Jun-14 00:31N 30°06' W 093°19'0 0.0
2018-Jun-14 00:01N 30°06' W 093°19'0 0.0
2018-Jun-13 23:31N 30°06' W 093°19'0 0.0
2018-Jun-13 23:01N 30°06' W 093°19'0 0.0
2018-Jun-13 22:31N 30°06' W 093°19'0 0.0
2018-Jun-13 22:01N 30°06' W 093°19'0 0.0
2018-Jun-13 21:30N 30°06' W 093°19'0 0.0
2018-Jun-13 21:01N 30°06' W 093°19'0 0.0
2018-Jun-13 20:31N 30°06' W 093°19'0 0.0
2018-Jun-13 20:01N 30°06' W 093°19'0 0.0
2018-Jun-13 19:31N 30°06' W 093°19'0 0.0
2018-Jun-13 19:01N 30°06' W 093°19'0 0.0
2018-Jun-13 18:31N 30°06' W 093°19'0 0.0
2018-Jun-13 18:01N 30°06' W 093°19'0 0.0
2018-Jun-13 17:31N 30°06' W 093°19'0 0.0
2018-Jun-13 17:01N 30°06' W 093°19'0 0.0
2018-Jun-13 16:31N 30°06' W 093°19'0 0.0
2018-Jun-13 16:01N 30°06' W 093°19'0 0.0
2018-Jun-13 15:30N 30°06' W 093°19'0 0.0
2018-Jun-13 15:01N 30°06' W 093°19'0 0.0
2018-Jun-13 14:30N 30°06' W 093°19'0 0.0
2018-Jun-13 14:01N 30°06' W 093°19'0 0.0
2018-Jun-13 13:30N 30°06' W 093°19'0 0.0
2018-Jun-13 13:01N 30°06' W 093°19'0 0.0
2018-Jun-13 12:30N 30°06' W 093°19'0 0.0
2018-Jun-13 11:59N 30°06' W 093°19'0 0.0
2018-Jun-13 11:30N 30°06' W 093°19'0 0.0
2018-Jun-13 11:01N 30°06' W 093°19'0 0.0
2018-Jun-13 10:31N 30°06' W 093°19'0 0.0
2018-Jun-13 10:00N 30°06' W 093°19'0 0.0
2018-Jun-13 09:29N 30°06' W 093°19'0 0.0
2018-Jun-13 09:00N 30°06' W 093°19'0 0.0
2018-Jun-13 08:31N 30°06' W 093°19'1 2.3
2018-Jun-13 08:01N 30°07' W 093°20'1 2.8
2018-Jun-13 07:31N 30°08' W 093°19'0 0.0
2018-Jun-13 07:01N 30°08' W 093°19'0 0.0
2018-Jun-13 06:31N 30°08' W 093°19'0 0.0
2018-Jun-13 06:01N 30°08' W 093°19'0 0.0
2018-Jun-13 05:31N 30°08' W 093°19'0 0.0
2018-Jun-13 05:01N 30°08' W 093°19'0 0.0
2018-Jun-13 04:31N 30°08' W 093°19'0 0.0
2018-Jun-13 04:00N 30°08' W 093°19'0 0.0
2018-Jun-13 03:30N 30°08' W 093°19'0 0.0
2018-Jun-13 03:01N 30°08' W 093°19'0 0.0
2018-Jun-13 02:31N 30°08' W 093°19'0 0.0
2018-Jun-13 02:01N 30°08' W 093°19'0 0.0
2018-Jun-13 01:30N 30°08' W 093°19'0 0.0
2018-Jun-13 01:01N 30°08' W 093°19'0 0.0
2018-Jun-13 00:31N 30°08' W 093°19'1 2.4
2018-Jun-13 00:01N 30°07' W 093°20'3 5.1
2018-Jun-12 23:30N 30°04' W 093°20'2 4.3
2018-Jun-12 23:01N 30°04' W 093°23'3 5.1
2018-Jun-12 22:31N 30°04' W 093°26'3 5.9
2018-Jun-12 22:01N 30°04' W 093°29'3 6.1
2018-Jun-12 21:30N 30°04' W 093°32'3 6.1
2018-Jun-12 21:00N 30°04' W 093°36'2 0.3
2018-Jun-12 15:17N 30°02' W 093°37'2 3.9
2018-Jun-12 14:49N 30°04' W 093°36'2 6.0
2018-Jun-12 14:30N 30°04' W 093°34'3 6.2
2018-Jun-12 13:59N 30°04' W 093°30'3 6.4
2018-Jun-12 13:31N 30°04' W 093°27'3 6.5
2018-Jun-12 13:00N 30°04' W 093°23'3 5.6
2018-Jun-12 12:31N 30°05' W 093°20'3 5.0
2018-Jun-12 12:01N 30°07' W 093°20'1 2.0
2018-Jun-12 11:31N 30°08' W 093°19'0 0.0
2018-Jun-12 11:00N 30°08' W 093°19'0 0.0
2018-Jun-12 10:31N 30°08' W 093°19'0 0.0
2018-Jun-12 10:00N 30°08' W 093°19'0 0.0
2018-Jun-12 09:27N 30°08' W 093°19'0 0.0
2018-Jun-12 08:59N 30°08' W 093°19'0 0.0
2018-Jun-12 08:29N 30°08' W 093°19'0 0.0
2018-Jun-12 08:01N 30°08' W 093°19'0 0.1
2018-Jun-12 07:31N 30°08' W 093°19'0 0.0
2018-Jun-12 07:00N 30°08' W 093°19'0 0.0
2018-Jun-12 06:30N 30°08' W 093°19'0 0.0
2018-Jun-12 06:00N 30°08' W 093°19'0 0.0
2018-Jun-12 05:31N 30°08' W 093°19'0 0.0
2018-Jun-12 05:01N 30°08' W 093°19'0 0.0
2018-Jun-12 04:31N 30°08' W 093°19'0 0.0
2018-Jun-12 04:00N 30°08' W 093°19'0 0.0
2018-Jun-12 03:30N 30°08' W 093°19'0 0.0
2018-Jun-12 03:01N 30°08' W 093°19'0 0.0
2018-Jun-12 02:31N 30°08' W 093°19'0 0.0
2018-Jun-12 02:01N 30°08' W 093°19'0 0.0
2018-Jun-12 01:31N 30°08' W 093°19'0 0.0
2018-Jun-12 01:01N 30°08' W 093°19'0 0.0
2018-Jun-12 00:31N 30°08' W 093°19'0 0.0
2018-Jun-12 00:00N 30°08' W 093°19'0 0.0
2018-Jun-11 23:31N 30°08' W 093°19'0 0.0
2018-Jun-11 23:01N 30°08' W 093°19'0 0.0
2018-Jun-11 22:31N 30°08' W 093°19'0 0.0
2018-Jun-11 22:01N 30°08' W 093°19'0 0.0
2018-Jun-11 21:30N 30°08' W 093°19'0 0.0
2018-Jun-11 21:00N 30°08' W 093°19'0 0.0
2018-Jun-11 20:31N 30°08' W 093°19'0 0.0
2018-Jun-11 20:00N 30°08' W 093°19'0 0.0
2018-Jun-11 19:31N 30°08' W 093°19'0 0.0
2018-Jun-11 19:01N 30°08' W 093°19'0 0.0
2018-Jun-11 18:30N 30°08' W 093°19'0 0.0
2018-Jun-11 18:01N 30°08' W 093°19'0 0.0
2018-Jun-11 17:31N 30°08' W 093°19'0 0.0
2018-Jun-11 17:00N 30°08' W 093°19'0 0.0
2018-Jun-11 16:30N 30°08' W 093°19'0 0.0
2018-Jun-11 16:00N 30°08' W 093°19'0 0.0
2018-Jun-11 15:30N 30°08' W 093°19'0 0.0
2018-Jun-11 15:01N 30°08' W 093°19'0 0.1
2018-Jun-11 14:31N 30°08' W 093°19'0 0.0
2018-Jun-11 14:01N 30°08' W 093°19'0 0.0
2018-Jun-11 13:31N 30°08' W 093°19'0 0.0
2018-Jun-11 13:01N 30°08' W 093°19'0 0.0
2018-Jun-11 12:30N 30°08' W 093°19'0 0.0
2018-Jun-11 12:00N 30°08' W 093°19'0 0.0
2018-Jun-11 11:29N 30°08' W 093°19'0 0.0
2018-Jun-11 11:00N 30°08' W 093°19'0 0.0
2018-Jun-11 10:31N 30°08' W 093°19'0 0.0
2018-Jun-11 10:00N 30°08' W 093°19'0 0.1
2018-Jun-11 09:30N 30°08' W 093°19'0 0.1
2018-Jun-11 09:01N 30°08' W 093°19'0 0.0
2018-Jun-11 08:30N 30°08' W 093°19'0 0.0
2018-Jun-11 08:00N 30°08' W 093°19'0 0.0
2018-Jun-11 07:30N 30°08' W 093°19'0 0.0
2018-Jun-11 07:01N 30°08' W 093°19'0 0.0
2018-Jun-11 06:31N 30°08' W 093°19'  

Dump ship's entire track history